createdAt,value
2019-05-10T00:02:55.152Z,2.10
2019-05-10T00:08:18.238Z,2.00
2019-05-10T00:13:25.705Z,2.10
2019-05-10T00:18:30.992Z,1.75
2019-05-10T00:23:36.224Z,1.80
2019-05-10T00:28:41.512Z,2.07
2019-05-10T00:33:46.830Z,1.70
2019-05-10T00:38:52.072Z,1.97
2019-05-10T00:43:59.870Z,2.10
2019-05-10T00:49:05.523Z,2.20
2019-05-10T00:54:10.775Z,2.20
2019-05-10T00:59:16.399Z,2.25
2019-05-10T01:04:21.733Z,2.58
2019-05-10T01:09:26.951Z,2.30
2019-05-10T01:14:32.224Z,2.58
2019-05-10T01:19:37.439Z,2.75
2019-05-10T01:24:42.891Z,2.72
2019-05-10T01:29:48.158Z,2.50
2019-05-10T01:34:53.489Z,2.77
2019-05-10T01:39:58.765Z,2.83
2019-05-10T01:45:03.984Z,3.10
2019-05-10T01:50:09.280Z,2.95
2019-05-10T01:55:14.856Z,3.17
2019-05-10T02:00:20.471Z,3.10
2019-05-10T02:05:25.820Z,3.10
2019-05-10T02:10:31.227Z,3.20
2019-05-10T02:15:36.584Z,3.00
2019-05-10T02:20:42.146Z,3.45
2019-05-10T02:25:47.476Z,3.20
2019-05-10T02:30:52.721Z,3.40
2019-05-10T02:35:57.973Z,3.30
2019-05-10T02:41:03.212Z,3.47
2019-05-10T02:46:08.752Z,3.90
2019-05-10T02:51:13.967Z,3.77
2019-05-10T02:56:30.444Z,3.90
2019-05-10T03:01:30.670Z,3.58
2019-05-10T03:06:36.637Z,3.50
2019-05-10T03:11:49.624Z,3.80
2019-05-10T03:16:55.257Z,4.07
2019-05-10T03:22:06.475Z,4.20
2019-05-10T03:27:12.631Z,3.95
2019-05-10T03:32:17.938Z,3.72
2019-05-10T03:37:23.250Z,4.03
2019-05-10T03:42:28.891Z,4.23
2019-05-10T03:47:34.654Z,4.10
2019-05-10T03:52:39.873Z,4.25
2019-05-10T03:57:45.161Z,3.90
2019-05-10T04:02:50.767Z,4.55
2019-05-10T04:07:56.003Z,4.40
2019-05-10T04:13:01.240Z,4.47
2019-05-10T04:18:06.531Z,4.78
2019-05-10T04:23:11.766Z,4.50
2019-05-10T04:28:17.309Z,4.47
2019-05-10T04:33:22.614Z,5.53
2019-05-10T04:38:27.870Z,3.77
2019-05-10T04:43:33.177Z,3.77
2019-05-10T04:48:38.775Z,3.67
2019-05-10T04:53:44.053Z,3.83
2019-05-10T04:58:49.373Z,3.80
2019-05-10T05:03:55.564Z,3.47
2019-05-10T05:09:00.790Z,3.85
2019-05-10T05:14:09.461Z,3.87
2019-05-10T05:19:13.548Z,3.87
2019-05-10T05:24:22.868Z,3.90
2019-05-10T05:29:26.097Z,3.77
2019-05-10T05:34:32.264Z,3.47
2019-05-10T05:39:37.766Z,4.08
2019-05-10T05:44:43.004Z,3.70
2019-05-10T05:49:48.264Z,3.58
2019-05-10T05:54:57.445Z,4.10
2019-05-10T06:00:04.119Z,3.30
2019-05-10T06:05:07.584Z,3.80
2019-05-10T06:10:17.339Z,3.60
2019-05-10T06:15:23.142Z,3.52
2019-05-10T06:20:26.878Z,3.30
2019-05-10T06:25:39.257Z,3.23
2019-05-10T06:30:39.065Z,3.20
2019-05-10T06:35:44.426Z,2.90
2019-05-10T06:40:49.670Z,3.02
2019-05-10T06:45:55.843Z,3.00
2019-05-10T06:51:03.078Z,3.00
2019-05-10T06:56:08.389Z,2.90
2019-05-10T07:01:13.941Z,3.05
2019-05-10T07:06:19.302Z,2.90
2019-05-10T07:11:24.535Z,3.10
2019-05-10T07:16:29.997Z,2.60
2019-05-10T07:21:38.982Z,2.87
2019-05-10T07:26:43.482Z,3.67
2019-05-10T07:31:48.827Z,3.25
2019-05-10T07:36:54.417Z,3.00
2019-05-10T07:42:00.273Z,2.80
2019-05-10T07:47:06.834Z,2.95
2019-05-10T07:52:12.081Z,2.50
2019-05-10T07:57:18.514Z,2.70
2019-05-10T08:02:24.617Z,2.92
2019-05-10T08:07:29.847Z,2.85
2019-05-10T08:12:41.528Z,2.72
2019-05-10T08:17:45.561Z,2.50
2019-05-10T08:22:49.859Z,2.50
2019-05-10T08:27:55.536Z,2.92
2019-05-10T08:33:09.119Z,2.40
2019-05-10T08:38:07.925Z,2.90
2019-05-10T08:43:16.672Z,2.70
2019-05-10T08:48:20.071Z,2.83
2019-05-10T08:53:25.432Z,2.53
2019-05-10T08:58:32.456Z,2.30
2019-05-10T09:03:37.677Z,2.60
2019-05-10T09:08:43.360Z,2.42
2019-05-10T09:13:49.919Z,2.50
2019-05-10T09:18:55.413Z,2.40
2019-05-10T09:24:04.885Z,2.50
2019-05-10T09:29:08.369Z,2.40
2019-05-10T09:34:13.617Z,2.25
2019-05-10T09:39:24.310Z,2.30
2019-05-10T09:44:25.906Z,2.00
2019-05-10T09:49:33.251Z,2.30
2019-05-10T09:54:38.261Z,2.30
2019-05-10T09:59:43.424Z,2.60
2019-05-10T10:04:48.733Z,2.00
2019-05-10T10:09:54.022Z,2.15
2019-05-10T10:15:00.658Z,2.20
2019-05-10T10:20:08.424Z,2.50
2019-05-10T10:25:13.533Z,2.20
2019-05-10T10:30:21.538Z,2.02
2019-05-10T10:35:27.606Z,2.00
2019-05-10T10:40:35.385Z,1.87
2019-05-10T10:45:40.017Z,2.02
2019-05-10T10:50:51.231Z,1.70
2019-05-10T10:55:54.267Z,1.72
2019-05-10T11:00:59.268Z,1.70
2019-05-10T11:06:05.054Z,1.62
2019-05-10T11:11:10.643Z,2.10
2019-05-10T11:16:16.020Z,1.80
2019-05-10T11:21:23.328Z,1.72
2019-05-10T11:26:32.803Z,1.60
2019-05-10T11:31:35.260Z,1.40
2019-05-10T11:36:45.782Z,1.57
2019-05-10T11:41:53.105Z,1.57
2019-05-10T11:46:54.423Z,1.40
2019-05-10T11:52:01.680Z,1.30
2019-05-10T11:57:12.829Z,1.42
2019-05-10T12:02:33.792Z,1.50
2019-05-10T12:07:26.850Z,1.60
2019-05-10T12:12:45.279Z,1.77
2019-05-10T12:17:35.758Z,1.60
2019-05-10T12:22:47.206Z,1.40
2019-05-10T12:27:51.460Z,1.50
2019-05-10T12:32:57.143Z,1.42
2019-05-10T12:38:03.225Z,1.47
2019-05-10T12:43:10.745Z,1.25
2019-05-10T12:48:16.529Z,1.17
2019-05-10T12:53:21.761Z,1.20
2019-05-10T12:58:27.040Z,1.30
2019-05-10T13:04:54.380Z,1.72
2019-05-10T13:10:03.987Z,1.60
2019-05-10T13:15:17.400Z,1.70
2019-05-10T13:20:24.248Z,1.55
2019-05-10T13:25:29.798Z,1.80
2019-05-10T13:30:35.045Z,1.70
2019-05-10T13:35:40.276Z,1.50
2019-05-10T13:40:47.832Z,1.50
2019-05-10T13:45:53.526Z,1.40
2019-05-10T13:51:00.484Z,1.40
2019-05-10T13:56:05.792Z,1.20
2019-05-10T14:01:13.216Z,1.00
2019-05-10T14:06:18.390Z,1.20
2019-05-10T14:11:23.954Z,1.50
2019-05-10T14:16:29.450Z,1.40
2019-05-10T14:21:34.785Z,1.12
2019-05-10T14:26:40.053Z,1.20
2019-05-10T14:31:45.295Z,1.40
2019-05-10T14:36:50.721Z,1.20
2019-05-10T14:41:57.326Z,1.20
2019-05-10T14:47:05.823Z,1.42
2019-05-10T14:52:11.818Z,1.50
2019-05-10T14:57:17.183Z,1.45
2019-05-10T15:02:24.926Z,1.90
2019-05-10T15:07:29.908Z,1.90
2019-05-10T15:12:35.357Z,1.57
2019-05-10T15:17:40.797Z,1.83
2019-05-10T15:22:46.201Z,1.87
2019-05-10T15:27:54.711Z,1.90
2019-05-10T15:32:59.053Z,1.72
2019-05-10T15:38:04.730Z,2.05
2019-05-10T15:43:16.696Z,2.00
2019-05-10T15:48:17.781Z,2.00
2019-05-10T15:53:25.459Z,1.80
2019-05-10T15:59:23.775Z,1.90
2019-05-10T16:03:37.061Z,1.80
2019-05-10T16:08:42.984Z,2.10
2019-05-10T16:13:48.193Z,1.90
2019-05-10T16:18:53.413Z,1.80
2019-05-10T16:23:58.972Z,1.80
2019-05-10T16:29:04.206Z,1.90
2019-05-10T16:34:09.527Z,1.90
2019-05-10T16:39:14.759Z,1.80
2019-05-10T16:44:21.031Z,1.90
2019-05-10T16:49:26.579Z,2.10
2019-05-10T16:54:31.938Z,2.20
2019-05-10T16:59:37.605Z,2.50
2019-05-10T17:04:42.946Z,2.60
2019-05-10T17:09:52.816Z,2.40
2019-05-10T17:14:56.510Z,2.33
2019-05-10T17:20:07.339Z,2.80
2019-05-10T17:30:27.769Z,2.83
2019-05-10T17:35:36.529Z,2.65
2019-05-10T17:40:42.299Z,3.30
2019-05-10T17:45:47.186Z,3.37
2019-05-10T17:50:52.479Z,3.27
2019-05-10T17:56:02.557Z,3.30
2019-05-10T18:01:04.812Z,2.40
2019-05-10T18:06:22.974Z,3.10
2019-05-10T18:11:17.737Z,2.97
2019-05-10T18:16:23.297Z,3.17
2019-05-10T18:21:28.510Z,3.70
2019-05-10T18:26:39.064Z,4.10
2019-05-10T18:31:41.364Z,4.20
2019-05-10T18:36:51.657Z,5.10
2019-05-10T18:41:53.891Z,4.10
2019-05-10T18:46:59.292Z,3.80
2019-05-10T18:52:06.626Z,4.17
2019-05-10T18:57:18.769Z,3.58
2019-05-10T19:02:19.984Z,3.40
2019-05-10T19:07:26.054Z,3.58
2019-05-10T19:12:31.597Z,4.53
2019-05-10T19:17:40.324Z,4.28
2019-05-10T19:22:44.289Z,14.28
2019-05-10T19:27:50.777Z,3.40
2019-05-10T19:32:58.086Z,3.42
2019-05-10T19:38:03.491Z,6.60
2019-05-10T19:43:08.834Z,4.40
2019-05-10T19:48:14.195Z,4.10
2019-05-10T19:53:19.439Z,4.33
2019-05-10T19:58:26.609Z,3.90
2019-05-10T20:03:33.183Z,23.70
2019-05-10T20:08:38.424Z,9.10
2019-05-10T20:13:44.536Z,5.10
2019-05-10T20:18:49.870Z,4.50
2019-05-10T20:23:55.422Z,7.10
2019-05-10T20:29:00.756Z,6.63
2019-05-10T20:34:05.993Z,6.62
2019-05-10T20:39:11.451Z,5.80
2019-05-10T20:44:18.370Z,5.42
2019-05-10T20:49:23.647Z,6.60
2019-05-10T20:54:31.073Z,6.20
2019-05-10T20:59:36.927Z,5.28
2019-05-10T21:04:42.697Z,5.42
2019-05-10T21:09:48.025Z,6.12
2019-05-10T21:14:54.659Z,5.92
2019-05-10T21:20:00.851Z,5.80
2019-05-10T21:25:06.904Z,5.45
2019-05-10T21:30:12.611Z,4.20
2019-05-10T21:35:17.872Z,4.28
2019-05-10T21:40:23.386Z,4.47
2019-05-10T21:45:28.722Z,4.10
2019-05-10T21:50:37.305Z,5.05
2019-05-10T21:55:43.728Z,4.62
2019-05-10T22:00:54.457Z,4.95
2019-05-10T22:06:01.725Z,4.90
2019-05-10T22:11:07.041Z,4.92
2019-05-10T22:16:12.908Z,4.77
2019-05-10T22:21:18.264Z,4.80
2019-05-10T22:26:23.638Z,5.03
2019-05-10T22:31:29.153Z,5.03
2019-05-10T22:36:35.039Z,5.35
2019-05-10T22:41:40.387Z,5.20
2019-05-10T22:46:45.970Z,5.83
2019-05-10T22:51:51.711Z,5.87
2019-05-10T22:56:57.550Z,5.80
2019-05-10T23:02:03.469Z,6.30
2019-05-10T23:07:10.466Z,6.87
2019-05-10T23:12:15.825Z,5.93
2019-05-10T23:17:21.089Z,5.90
2019-05-10T23:22:26.395Z,6.17
2019-05-10T23:27:32.133Z,6.30
2019-05-10T23:32:37.488Z,6.62
2019-05-10T23:37:45.087Z,7.85
2019-05-10T23:42:50.381Z,7.65
2019-05-10T23:47:56.899Z,6.80
2019-05-10T23:53:02.257Z,5.47
2019-05-10T23:58:07.527Z,6.07
